sensor_id;sensor_type;location;lat;lon;timestamp;P1;durP1;ratioP1;P2;durP2;ratioP2
29358;SDS011;16347;53.232;6.556;2022-08-05T00:00:21;10.80;;;5.10;;
29358;SDS011;16347;53.232;6.556;2022-08-05T00:02:52;9.32;;;3.70;;
29358;SDS011;16347;53.232;6.556;2022-08-05T00:05:21;7.32;;;2.83;;
29358;SDS011;16347;53.232;6.556;2022-08-05T00:08:09;6.28;;;2.47;;
29358;SDS011;16347;53.232;6.556;2022-08-05T00:10:57;4.35;;;2.00;;
29358;SDS011;16347;53.232;6.556;2022-08-05T00:13:27;8.30;;;2.92;;
29358;SDS011;16347;53.232;6.556;2022-08-05T00:16:07;8.65;;;3.42;;
29358;SDS011;16347;53.232;6.556;2022-08-05T00:18:41;6.90;;;2.65;;
29358;SDS011;16347;53.232;6.556;2022-08-05T00:21:11;6.95;;;2.42;;
29358;SDS011;16347;53.232;6.556;2022-08-05T00:23:40;9.10;;;2.65;;
29358;SDS011;16347;53.232;6.556;2022-08-05T00:26:29;3.92;;;2.10;;
29358;SDS011;16347;53.232;6.556;2022-08-05T00:28:57;7.35;;;2.28;;
29358;SDS011;16347;53.232;6.556;2022-08-05T00:31:27;7.20;;;2.40;;
29358;SDS011;16347;53.232;6.556;2022-08-05T00:34:17;11.60;;;2.72;;
29358;SDS011;16347;53.232;6.556;2022-08-05T00:37:05;9.43;;;2.72;;
29358;SDS011;16347;53.232;6.556;2022-08-05T00:39:39;7.00;;;2.40;;
29358;SDS011;16347;53.232;6.556;2022-08-05T00:42:28;10.48;;;2.72;;
29358;SDS011;16347;53.232;6.556;2022-08-05T00:44:58;6.80;;;2.38;;
29358;SDS011;16347;53.232;6.556;2022-08-05T00:47:26;6.18;;;2.35;;
29358;SDS011;16347;53.232;6.556;2022-08-05T00:50:16;10.43;;;2.83;;
29358;SDS011;16347;53.232;6.556;2022-08-05T00:52:46;5.03;;;2.33;;
29358;SDS011;16347;53.232;6.556;2022-08-05T00:55:14;6.85;;;2.40;;
29358;SDS011;16347;53.232;6.556;2022-08-05T00:57:44;9.00;;;2.88;;
29358;SDS011;16347;53.232;6.556;2022-08-05T01:00:24;9.15;;;2.58;;
29358;SDS011;16347;53.232;6.556;2022-08-05T01:02:53;5.78;;;2.30;;
29358;SDS011;16347;53.232;6.556;2022-08-05T01:05:23;10.02;;;2.13;;
29358;SDS011;16347;53.232;6.556;2022-08-05T01:07:53;6.65;;;2.20;;
29358;SDS011;16347;53.232;6.556;2022-08-05T01:10:43;7.13;;;2.35;;
29358;SDS011;16347;53.232;6.556;2022-08-05T01:13:20;6.95;;;2.85;;
29358;SDS011;16347;53.232;6.556;2022-08-05T01:16:12;11.97;;;2.53;;
29358;SDS011;16347;53.232;6.556;2022-08-05T01:18:53;6.82;;;2.22;;
29358;SDS011;16347;53.232;6.556;2022-08-05T01:24:25;5.63;;;1.83;;
29358;SDS011;16347;53.232;6.556;2022-08-05T01:27:12;7.45;;;1.67;;
29358;SDS011;16347;53.232;6.556;2022-08-05T01:29:55;8.88;;;2.35;;
29358;SDS011;16347;53.232;6.556;2022-08-05T01:32:29;6.90;;;2.20;;
29358;SDS011;16347;53.232;6.556;2022-08-05T01:35:01;5.22;;;2.05;;
29358;SDS011;16347;53.232;6.556;2022-08-05T01:37:38;7.65;;;1.77;;
29358;SDS011;16347;53.232;6.556;2022-08-05T01:40:11;8.07;;;2.13;;
29358;SDS011;16347;53.232;6.556;2022-08-05T01:42:44;7.50;;;1.87;;
29358;SDS011;16347;53.232;6.556;2022-08-05T01:45:15;4.57;;;1.15;;
29358;SDS011;16347;53.232;6.556;2022-08-05T01:47:46;8.93;;;2.03;;
29358;SDS011;16347;53.232;6.556;2022-08-05T01:50:25;11.82;;;2.60;;
29358;SDS011;16347;53.232;6.556;2022-08-05T01:52:57;6.63;;;1.85;;
29358;SDS011;16347;53.232;6.556;2022-08-05T01:55:30;5.18;;;2.08;;
29358;SDS011;16347;53.232;6.556;2022-08-05T01:58:02;5.10;;;1.80;;
29358;SDS011;16347;53.232;6.556;2022-08-05T02:00:53;6.22;;;2.00;;
29358;SDS011;16347;53.232;6.556;2022-08-05T02:03:24;5.60;;;2.20;;
29358;SDS011;16347;53.232;6.556;2022-08-05T02:06:00;7.60;;;2.17;;
29358;SDS011;16347;53.232;6.556;2022-08-05T02:08:51;5.57;;;1.70;;
29358;SDS011;16347;53.232;6.556;2022-08-05T02:11:24;8.13;;;2.15;;
29358;SDS011;16347;53.232;6.556;2022-08-05T02:14:00;5.03;;;1.70;;
29358;SDS011;16347;53.232;6.556;2022-08-05T02:16:41;5.65;;;2.13;;
29358;SDS011;16347;53.232;6.556;2022-08-05T02:19:19;8.57;;;2.20;;
29358;SDS011;16347;53.232;6.556;2022-08-05T02:22:01;6.70;;;1.90;;
29358;SDS011;16347;53.232;6.556;2022-08-05T02:24:52;6.28;;;1.85;;
29358;SDS011;16347;53.232;6.556;2022-08-05T02:27:25;5.35;;;1.85;;
29358;SDS011;16347;53.232;6.556;2022-08-05T02:30:15;9.00;;;2.22;;
29358;SDS011;16347;53.232;6.556;2022-08-05T02:32:47;3.03;;;1.80;;
29358;SDS011;16347;53.232;6.556;2022-08-05T02:35:18;6.97;;;2.08;;
29358;SDS011;16347;53.232;6.556;2022-08-05T02:37:54;8.98;;;2.17;;
29358;SDS011;16347;53.232;6.556;2022-08-05T02:40:28;4.07;;;1.73;;
29358;SDS011;16347;53.232;6.556;2022-08-05T02:42:59;4.65;;;2.15;;
29358;SDS011;16347;53.232;6.556;2022-08-05T02:45:32;8.02;;;2.08;;
29358;SDS011;16347;53.232;6.556;2022-08-05T02:48:21;5.15;;;2.03;;
29358;SDS011;16347;53.232;6.556;2022-08-05T02:50:56;8.68;;;2.28;;
29358;SDS011;16347;53.232;6.556;2022-08-05T02:53:26;4.07;;;1.42;;
29358;SDS011;16347;53.232;6.556;2022-08-05T02:56:20;6.75;;;2.03;;
29358;SDS011;16347;53.232;6.556;2022-08-05T02:58:49;11.40;;;2.15;;
29358;SDS011;16347;53.232;6.556;2022-08-05T03:01:19;8.45;;;2.03;;
29358;SDS011;16347;53.232;6.556;2022-08-05T03:03:54;11.52;;;1.98;;
29358;SDS011;16347;53.232;6.556;2022-08-05T03:06:37;7.35;;;1.88;;
29358;SDS011;16347;53.232;6.556;2022-08-05T03:09:25;7.95;;;2.13;;
29358;SDS011;16347;53.232;6.556;2022-08-05T03:12:04;10.85;;;2.40;;
29358;SDS011;16347;53.232;6.556;2022-08-05T03:14:33;8.15;;;2.30;;
29358;SDS011;16347;53.232;6.556;2022-08-05T03:17:11;7.85;;;2.22;;
29358;SDS011;16347;53.232;6.556;2022-08-05T03:19:41;10.65;;;2.70;;
29358;SDS011;16347;53.232;6.556;2022-08-05T03:22:11;5.97;;;2.50;;
29358;SDS011;16347;53.232;6.556;2022-08-05T03:24:44;5.45;;;2.45;;
29358;SDS011;16347;53.232;6.556;2022-08-05T03:27:17;8.98;;;1.90;;
29358;SDS011;16347;53.232;6.556;2022-08-05T03:29:46;7.85;;;2.67;;
29358;SDS011;16347;53.232;6.556;2022-08-05T03:32:35;5.72;;;2.28;;
29358;SDS011;16347;53.232;6.556;2022-08-05T03:35:08;8.18;;;2.67;;
29358;SDS011;16347;53.232;6.556;2022-08-05T03:37:36;10.70;;;2.70;;
29358;SDS011;16347;53.232;6.556;2022-08-05T03:40:12;10.27;;;2.33;;
29358;SDS011;16347;53.232;6.556;2022-08-05T03:42:57;5.65;;;2.50;;
29358;SDS011;16347;53.232;6.556;2022-08-05T03:45:45;3.50;;;1.50;;
29358;SDS011;16347;53.232;6.556;2022-08-05T03:48:23;3.90;;;1.83;;
29358;SDS011;16347;53.232;6.556;2022-08-05T03:50:54;5.22;;;1.90;;
29358;SDS011;16347;53.232;6.556;2022-08-05T03:53:49;4.57;;;1.90;;
29358;SDS011;16347;53.232;6.556;2022-08-05T03:56:41;4.97;;;1.60;;
29358;SDS011;16347;53.232;6.556;2022-08-05T03:59:12;5.28;;;1.75;;
29358;SDS011;16347;53.232;6.556;2022-08-05T04:01:46;3.90;;;1.80;;
29358;SDS011;16347;53.232;6.556;2022-08-05T04:04:18;8.48;;;2.20;;
29358;SDS011;16347;53.232;6.556;2022-08-05T04:06:53;6.70;;;2.10;;
29358;SDS011;16347;53.232;6.556;2022-08-05T04:09:25;4.88;;;1.80;;
29358;SDS011;16347;53.232;6.556;2022-08-05T04:12:18;9.00;;;2.33;;
29358;SDS011;16347;53.232;6.556;2022-08-05T04:14:50;5.07;;;1.95;;
29358;SDS011;16347;53.232;6.556;2022-08-05T04:17:23;7.13;;;1.92;;
29358;SDS011;16347;53.232;6.556;2022-08-05T04:20:20;4.68;;;1.80;;
29358;SDS011;16347;53.232;6.556;2022-08-05T04:22:51;3.13;;;1.75;;
29358;SDS011;16347;53.232;6.556;2022-08-05T04:25:19;5.40;;;1.83;;
29358;SDS011;16347;53.232;6.556;2022-08-05T04:28:09;6.50;;;2.30;;
29358;SDS011;16347;53.232;6.556;2022-08-05T04:30:41;5.30;;;1.90;;
29358;SDS011;16347;53.232;6.556;2022-08-05T04:33:09;7.13;;;2.00;;
29358;SDS011;16347;53.232;6.556;2022-08-05T04:35:40;7.43;;;1.90;;
29358;SDS011;16347;53.232;6.556;2022-08-05T04:38:34;2.40;;;1.02;;
29358;SDS011;16347;53.232;6.556;2022-08-05T04:41:06;3.15;;;1.67;;
29358;SDS011;16347;53.232;6.556;2022-08-05T04:43:35;7.05;;;2.13;;
29358;SDS011;16347;53.232;6.556;2022-08-05T04:46:13;5.10;;;1.60;;
29358;SDS011;16347;53.232;6.556;2022-08-05T04:48:54;7.22;;;1.92;;
29358;SDS011;16347;53.232;6.556;2022-08-05T04:51:24;4.57;;;2.03;;
29358;SDS011;16347;53.232;6.556;2022-08-05T04:53:57;3.25;;;1.48;;
29358;SDS011;16347;53.232;6.556;2022-08-05T04:56:27;8.23;;;2.17;;
29358;SDS011;16347;53.232;6.556;2022-08-05T05:02:31;4.47;;;2.22;;
29358;SDS011;16347;53.232;6.556;2022-08-05T05:05:07;8.20;;;2.25;;
29358;SDS011;16347;53.232;6.556;2022-08-05T05:07:54;4.22;;;2.05;;
29358;SDS011;16347;53.232;6.556;2022-08-05T05:10:28;4.50;;;1.60;;
29358;SDS011;16347;53.232;6.556;2022-08-05T05:12:59;7.05;;;2.22;;
29358;SDS011;16347;53.232;6.556;2022-08-05T05:15:29;4.63;;;2.22;;
29358;SDS011;16347;53.232;6.556;2022-08-05T05:18:18;8.05;;;2.38;;
29358;SDS011;16347;53.232;6.556;2022-08-05T05:20:57;6.22;;;2.03;;
29358;SDS011;16347;53.232;6.556;2022-08-05T05:23:25;6.43;;;2.40;;
29358;SDS011;16347;53.232;6.556;2022-08-05T05:26:15;4.25;;;1.90;;
29358;SDS011;16347;53.232;6.556;2022-08-05T05:28:44;5.72;;;2.10;;
29358;SDS011;16347;53.232;6.556;2022-08-05T05:31:12;3.90;;;2.00;;
29358;SDS011;16347;53.232;6.556;2022-08-05T05:33:44;6.60;;;2.20;;
29358;SDS011;16347;53.232;6.556;2022-08-05T05:36:27;5.50;;;1.73;;
29358;SDS011;16347;53.232;6.556;2022-08-05T05:38:57;4.32;;;1.83;;
29358;SDS011;16347;53.232;6.556;2022-08-05T05:41:28;4.15;;;2.17;;
29358;SDS011;16347;53.232;6.556;2022-08-05T05:44:08;3.83;;;1.80;;
29358;SDS011;16347;53.232;6.556;2022-08-05T05:46:57;5.60;;;2.05;;
29358;SDS011;16347;53.232;6.556;2022-08-05T05:49:47;6.47;;;2.20;;
29358;SDS011;16347;53.232;6.556;2022-08-05T05:52:23;4.95;;;2.25;;
29358;SDS011;16347;53.232;6.556;2022-08-05T05:54:58;3.20;;;1.90;;
29358;SDS011;16347;53.232;6.556;2022-08-05T05:57:41;3.15;;;1.70;;
29358;SDS011;16347;53.232;6.556;2022-08-05T06:00:20;5.80;;;1.50;;
29358;SDS011;16347;53.232;6.556;2022-08-05T06:02:59;4.40;;;2.17;;
29358;SDS011;16347;53.232;6.556;2022-08-05T06:05:52;5.43;;;1.38;;
29358;SDS011;16347;53.232;6.556;2022-08-05T06:08:24;3.22;;;1.60;;
29358;SDS011;16347;53.232;6.556;2022-08-05T06:10:59;5.15;;;1.80;;
29358;SDS011;16347;53.232;6.556;2022-08-05T06:13:31;3.22;;;1.40;;
29358;SDS011;16347;53.232;6.556;2022-08-05T06:16:16;5.25;;;2.78;;
29358;SDS011;16347;53.232;6.556;2022-08-05T06:18:56;9.10;;;2.08;;
29358;SDS011;16347;53.232;6.556;2022-08-05T06:21:32;3.15;;;1.35;;
29358;SDS011;16347;53.232;6.556;2022-08-05T06:24:08;3.90;;;1.17;;
29358;SDS011;16347;53.232;6.556;2022-08-05T06:26:41;4.47;;;1.88;;
29358;SDS011;16347;53.232;6.556;2022-08-05T06:29:20;6.72;;;1.33;;
29358;SDS011;16347;53.232;6.556;2022-08-05T06:32:10;8.48;;;1.60;;
29358;SDS011;16347;53.232;6.556;2022-08-05T06:34:52;3.50;;;1.50;;
29358;SDS011;16347;53.232;6.556;2022-08-05T06:37:38;6.32;;;1.60;;
29358;SDS011;16347;53.232;6.556;2022-08-05T06:40:25;6.68;;;1.50;;
29358;SDS011;16347;53.232;6.556;2022-08-05T06:42:58;4.50;;;1.38;;
29358;SDS011;16347;53.232;6.556;2022-08-05T06:45:27;4.47;;;1.50;;
29358;SDS011;16347;53.232;6.556;2022-08-05T06:48:15;5.95;;;1.10;;
29358;SDS011;16347;53.232;6.556;2022-08-05T06:51:03;4.13;;;1.38;;
29358;SDS011;16347;53.232;6.556;2022-08-05T06:53:35;3.50;;;1.30;;
29358;SDS011;16347;53.232;6.556;2022-08-05T06:56:05;4.65;;;1.45;;
29358;SDS011;16347;53.232;6.556;2022-08-05T06:58:52;4.82;;;1.15;;
29358;SDS011;16347;53.232;6.556;2022-08-05T07:01:22;3.92;;;1.60;;
29358;SDS011;16347;53.232;6.556;2022-08-05T07:03:57;2.25;;;1.05;;
29358;SDS011;16347;53.232;6.556;2022-08-05T07:06:28;12.48;;;1.92;;
29358;SDS011;16347;53.232;6.556;2022-08-05T07:08:57;2.83;;;0.93;;
29358;SDS011;16347;53.232;6.556;2022-08-05T07:11:30;5.13;;;1.98;;
29358;SDS011;16347;53.232;6.556;2022-08-05T07:14:05;6.55;;;1.45;;
29358;SDS011;16347;53.232;6.556;2022-08-05T07:16:57;1.70;;;1.33;;
29358;SDS011;16347;53.232;6.556;2022-08-05T07:19:48;4.63;;;1.40;;
29358;SDS011;16347;53.232;6.556;2022-08-05T07:22:39;5.07;;;2.65;;
29358;SDS011;16347;53.232;6.556;2022-08-05T07:25:08;5.15;;;1.10;;
29358;SDS011;16347;53.232;6.556;2022-08-05T07:27:56;2.72;;;1.70;;
29358;SDS011;16347;53.232;6.556;2022-08-05T07:30:34;4.30;;;1.20;;
29358;SDS011;16347;53.232;6.556;2022-08-05T07:33:06;7.20;;;1.02;;
29358;SDS011;16347;53.232;6.556;2022-08-05T07:35:42;2.90;;;1.00;;
29358;SDS011;16347;53.232;6.556;2022-08-05T07:38:31;3.90;;;1.27;;
29358;SDS011;16347;53.232;6.556;2022-08-05T07:41:10;3.22;;;1.38;;
29358;SDS011;16347;53.232;6.556;2022-08-05T07:43:59;4.20;;;1.75;;
29358;SDS011;16347;53.232;6.556;2022-08-05T07:46:29;4.13;;;1.85;;
29358;SDS011;16347;53.232;6.556;2022-08-05T07:49:01;7.00;;;2.10;;
29358;SDS011;16347;53.232;6.556;2022-08-05T07:51:33;5.75;;;2.20;;
29358;SDS011;16347;53.232;6.556;2022-08-05T07:54:13;3.22;;;1.10;;
29358;SDS011;16347;53.232;6.556;2022-08-05T07:56:44;2.33;;;0.82;;
29358;SDS011;16347;53.232;6.556;2022-08-05T07:59:32;3.50;;;1.30;;
29358;SDS011;16347;53.232;6.556;2022-08-05T08:02:06;3.47;;;0.93;;
29358;SDS011;16347;53.232;6.556;2022-08-05T08:04:44;3.08;;;1.25;;
29358;SDS011;16347;53.232;6.556;2022-08-05T08:07:14;2.72;;;1.05;;
29358;SDS011;16347;53.232;6.556;2022-08-05T08:09:48;6.57;;;1.40;;
29358;SDS011;16347;53.232;6.556;2022-08-05T08:12:18;6.57;;;1.10;;
29358;SDS011;16347;53.232;6.556;2022-08-05T08:15:06;3.45;;;1.30;;
29358;SDS011;16347;53.232;6.556;2022-08-05T08:17:41;3.53;;;0.90;;
29358;SDS011;16347;53.232;6.556;2022-08-05T08:20:17;4.65;;;1.70;;
29358;SDS011;16347;53.232;6.556;2022-08-05T08:23:06;4.38;;;0.98;;
29358;SDS011;16347;53.232;6.556;2022-08-05T08:25:54;3.97;;;1.23;;
29358;SDS011;16347;53.232;6.556;2022-08-05T08:28:28;6.28;;;1.27;;
29358;SDS011;16347;53.232;6.556;2022-08-05T08:31:02;6.65;;;1.17;;
29358;SDS011;16347;53.232;6.556;2022-08-05T08:33:31;2.33;;;0.50;;
29358;SDS011;16347;53.232;6.556;2022-08-05T08:36:05;6.72;;;0.93;;
29358;SDS011;16347;53.232;6.556;2022-08-05T08:38:54;4.78;;;1.00;;
29358;SDS011;16347;53.232;6.556;2022-08-05T08:41:24;6.07;;;0.90;;
29358;SDS011;16347;53.232;6.556;2022-08-05T08:44:14;4.28;;;0.90;;
29358;SDS011;16347;53.232;6.556;2022-08-05T08:47:04;4.03;;;0.85;;
29358;SDS011;16347;53.232;6.556;2022-08-05T08:49:55;6.15;;;0.90;;
29358;SDS011;16347;53.232;6.556;2022-08-05T08:52:47;4.05;;;0.70;;
29358;SDS011;16347;53.232;6.556;2022-08-05T08:55:18;6.22;;;1.05;;
29358;SDS011;16347;53.232;6.556;2022-08-05T08:58:08;3.67;;;0.80;;
29358;SDS011;16347;53.232;6.556;2022-08-05T09:00:39;4.22;;;0.95;;
29358;SDS011;16347;53.232;6.556;2022-08-05T09:03:10;2.63;;;0.73;;
29358;SDS011;16347;53.232;6.556;2022-08-05T09:05:45;5.30;;;1.05;;
29358;SDS011;16347;53.232;6.556;2022-08-05T09:08:36;3.25;;;0.93;;
29358;SDS011;16347;53.232;6.556;2022-08-05T09:11:19;1.75;;;0.63;;
29358;SDS011;16347;53.232;6.556;2022-08-05T09:14:11;1.75;;;0.73;;
29358;SDS011;16347;53.232;6.556;2022-08-05T09:17:02;2.20;;;0.60;;
29358;SDS011;16347;53.232;6.556;2022-08-05T09:19:56;1.35;;;0.65;;
29358;SDS011;16347;53.232;6.556;2022-08-05T09:25:38;2.20;;;0.70;;
29358;SDS011;16347;53.232;6.556;2022-08-05T09:28:28;6.03;;;0.32;;
29358;SDS011;16347;53.232;6.556;2022-08-05T09:31:01;2.05;;;0.77;;
29358;SDS011;16347;53.232;6.556;2022-08-05T09:33:53;1.67;;;0.50;;
29358;SDS011;16347;53.232;6.556;2022-08-05T09:36:36;4.13;;;0.85;;
29358;SDS011;16347;53.232;6.556;2022-08-05T09:39:22;0.90;;;0.45;;
29358;SDS011;16347;53.232;6.556;2022-08-05T09:42:13;7.80;;;0.88;;
29358;SDS011;16347;53.232;6.556;2022-08-05T09:44:53;5.65;;;0.82;;
29358;SDS011;16347;53.232;6.556;2022-08-05T09:47:42;4.55;;;0.63;;
29358;SDS011;16347;53.232;6.556;2022-08-05T09:50:32;1.63;;;0.80;;
29358;SDS011;16347;53.232;6.556;2022-08-05T09:53:09;2.65;;;0.65;;
29358;SDS011;16347;53.232;6.556;2022-08-05T09:55:59;3.40;;;0.80;;
29358;SDS011;16347;53.232;6.556;2022-08-05T09:58:32;4.95;;;0.73;;
29358;SDS011;16347;53.232;6.556;2022-08-05T10:01:01;6.50;;;0.93;;
29358;SDS011;16347;53.232;6.556;2022-08-05T10:03:52;2.58;;;0.52;;
29358;SDS011;16347;53.232;6.556;2022-08-05T10:06:25;5.03;;;0.75;;
29358;SDS011;16347;53.232;6.556;2022-08-05T10:08:54;1.33;;;0.40;;
29358;SDS011;16347;53.232;6.556;2022-08-05T10:11:22;2.20;;;0.52;;
29358;SDS011;16347;53.232;6.556;2022-08-05T10:14:02;2.38;;;0.43;;
29358;SDS011;16347;53.232;6.556;2022-08-05T10:16:48;6.10;;;0.70;;
29358;SDS011;16347;53.232;6.556;2022-08-05T10:19:18;1.35;;;0.70;;
29358;SDS011;16347;53.232;6.556;2022-08-05T10:21:57;1.90;;;0.60;;
29358;SDS011;16347;53.232;6.556;2022-08-05T10:24:25;1.25;;;0.20;;
29358;SDS011;16347;53.232;6.556;2022-08-05T10:26:58;2.80;;;0.60;;
29358;SDS011;16347;53.232;6.556;2022-08-05T10:29:29;3.95;;;0.43;;
29358;SDS011;16347;53.232;6.556;2022-08-05T10:32:22;2.78;;;0.50;;
29358;SDS011;16347;53.232;6.556;2022-08-05T10:35:10;0.35;;;0.20;;
29358;SDS011;16347;53.232;6.556;2022-08-05T10:37:38;1.98;;;0.30;;
29358;SDS011;16347;53.232;6.556;2022-08-05T10:40:14;2.33;;;0.40;;
29358;SDS011;16347;53.232;6.556;2022-08-05T10:42:55;0.30;;;0.30;;
29358;SDS011;16347;53.232;6.556;2022-08-05T10:45:40;1.30;;;0.40;;
29358;SDS011;16347;53.232;6.556;2022-08-05T10:48:30;1.48;;;0.28;;
29358;SDS011;16347;53.232;6.556;2022-08-05T10:51:22;1.48;;;0.45;;
29358;SDS011;16347;53.232;6.556;2022-08-05T10:53:55;1.58;;;0.22;;
29358;SDS011;16347;53.232;6.556;2022-08-05T10:56:36;1.38;;;0.40;;
29358;SDS011;16347;53.232;6.556;2022-08-05T10:59:15;1.38;;;0.40;;
29358;SDS011;16347;53.232;6.556;2022-08-05T11:02:08;1.27;;;0.40;;
29358;SDS011;16347;53.232;6.556;2022-08-05T11:07:35;0.40;;;0.40;;
29358;SDS011;16347;53.232;6.556;2022-08-05T11:10:44;2.67;;;0.25;;
29358;SDS011;16347;53.232;6.556;2022-08-05T11:13:39;4.65;;;0.38;;
29358;SDS011;16347;53.232;6.556;2022-08-05T11:16:25;1.40;;;0.45;;
29358;SDS011;16347;53.232;6.556;2022-08-05T11:22:37;1.42;;;0.20;;
29358;SDS011;16347;53.232;6.556;2022-08-05T11:25:28;3.42;;;0.65;;
29358;SDS011;16347;53.232;6.556;2022-08-05T11:28:40;3.70;;;0.63;;
29358;SDS011;16347;53.232;6.556;2022-08-05T11:31:26;4.88;;;0.75;;
29358;SDS011;16347;53.232;6.556;2022-08-05T11:34:35;6.65;;;0.80;;
29358;SDS011;16347;53.232;6.556;2022-08-05T11:37:41;8.23;;;0.80;;
29358;SDS011;16347;53.232;6.556;2022-08-05T11:40:57;5.32;;;0.82;;
29358;SDS011;16347;53.232;6.556;2022-08-05T11:43:52;2.13;;;0.68;;
29358;SDS011;16347;53.232;6.556;2022-08-05T11:46:33;5.38;;;0.70;;
29358;SDS011;16347;53.232;6.556;2022-08-05T11:49:24;1.20;;;0.45;;
29358;SDS011;16347;53.232;6.556;2022-08-05T11:51:55;1.25;;;0.50;;
29358;SDS011;16347;53.232;6.556;2022-08-05T11:54:25;9.45;;;0.73;;
29358;SDS011;16347;53.232;6.556;2022-08-05T11:57:01;10.05;;;0.80;;
29358;SDS011;16347;53.232;6.556;2022-08-05T11:59:52;2.00;;;0.60;;
29358;SDS011;16347;53.232;6.556;2022-08-05T12:02:27;3.70;;;0.70;;
29358;SDS011;16347;53.232;6.556;2022-08-05T12:05:03;5.93;;;1.30;;
29358;SDS011;16347;53.232;6.556;2022-08-05T12:07:45;1.38;;;0.50;;
29358;SDS011;16347;53.232;6.556;2022-08-05T12:10:35;3.22;;;1.15;;
29358;SDS011;16347;53.232;6.556;2022-08-05T12:13:14;4.90;;;0.73;;
29358;SDS011;16347;53.232;6.556;2022-08-05T12:16:07;4.60;;;0.60;;
29358;SDS011;16347;53.232;6.556;2022-08-05T12:18:42;1.92;;;0.52;;
29358;SDS011;16347;53.232;6.556;2022-08-05T12:21:21;2.17;;;0.50;;
29358;SDS011;16347;53.232;6.556;2022-08-05T12:24:00;3.47;;;0.60;;
29358;SDS011;16347;53.232;6.556;2022-08-05T12:26:33;3.97;;;0.60;;
29358;SDS011;16347;53.232;6.556;2022-08-05T12:29:06;2.08;;;0.60;;
29358;SDS011;16347;53.232;6.556;2022-08-05T12:31:45;1.15;;;0.32;;
29358;SDS011;16347;53.232;6.556;2022-08-05T12:34:20;1.67;;;0.60;;
29358;SDS011;16347;53.232;6.556;2022-08-05T12:36:56;1.98;;;0.40;;
29358;SDS011;16347;53.232;6.556;2022-08-05T12:39:30;3.42;;;1.02;;
29358;SDS011;16347;53.232;6.556;2022-08-05T12:42:08;2.53;;;0.43;;
29358;SDS011;16347;53.232;6.556;2022-08-05T12:44:42;2.35;;;0.50;;
29358;SDS011;16347;53.232;6.556;2022-08-05T12:47:23;3.30;;;0.70;;
29358;SDS011;16347;53.232;6.556;2022-08-05T12:49:57;4.45;;;0.60;;
29358;SDS011;16347;53.232;6.556;2022-08-05T12:52:32;2.88;;;0.40;;
29358;SDS011;16347;53.232;6.556;2022-08-05T12:55:17;3.97;;;0.82;;
29358;SDS011;16347;53.232;6.556;2022-08-05T12:57:53;2.47;;;0.88;;
29358;SDS011;16347;53.232;6.556;2022-08-05T13:00:43;2.00;;;0.43;;
29358;SDS011;16347;53.232;6.556;2022-08-05T13:03:34;3.58;;;0.52;;
29358;SDS011;16347;53.232;6.556;2022-08-05T13:06:12;2.53;;;0.80;;
29358;SDS011;16347;53.232;6.556;2022-08-05T13:08:44;4.43;;;0.70;;
29358;SDS011;16347;53.232;6.556;2022-08-05T13:11:21;8.13;;;0.60;;
29358;SDS011;16347;53.232;6.556;2022-08-05T13:14:13;12.13;;;1.35;;
29358;SDS011;16347;53.232;6.556;2022-08-05T13:16:52;3.10;;;0.60;;
29358;SDS011;16347;53.232;6.556;2022-08-05T13:19:23;5.05;;;0.60;;
29358;SDS011;16347;53.232;6.556;2022-08-05T13:22:14;2.50;;;0.50;;
29358;SDS011;16347;53.232;6.556;2022-08-05T13:24:56;2.08;;;0.60;;
29358;SDS011;16347;53.232;6.556;2022-08-05T13:27:36;6.32;;;1.02;;
29358;SDS011;16347;53.232;6.556;2022-08-05T13:30:09;0.82;;;0.60;;
29358;SDS011;16347;53.232;6.556;2022-08-05T13:35:31;3.38;;;0.73;;
29358;SDS011;16347;53.232;6.556;2022-08-05T13:38:18;6.30;;;1.10;;
29358;SDS011;16347;53.232;6.556;2022-08-05T13:41:02;4.13;;;0.55;;
29358;SDS011;16347;53.232;6.556;2022-08-05T13:43:34;3.67;;;0.93;;
29358;SDS011;16347;53.232;6.556;2022-08-05T13:46:21;2.13;;;0.30;;
29358;SDS011;16347;53.232;6.556;2022-08-05T13:49:11;0.40;;;0.20;;
29358;SDS011;16347;53.232;6.556;2022-08-05T13:51:41;6.75;;;1.10;;
29358;SDS011;16347;53.232;6.556;2022-08-05T13:54:13;1.58;;;0.70;;
29358;SDS011;16347;53.232;6.556;2022-08-05T13:56:50;2.30;;;0.52;;
29358;SDS011;16347;53.232;6.556;2022-08-05T13:59:23;0.85;;;0.40;;
29358;SDS011;16347;53.232;6.556;2022-08-05T14:01:58;1.42;;;0.30;;
29358;SDS011;16347;53.232;6.556;2022-08-05T14:04:28;7.25;;;1.15;;
29358;SDS011;16347;53.232;6.556;2022-08-05T14:07:18;5.72;;;0.95;;
29358;SDS011;16347;53.232;6.556;2022-08-05T14:10:10;15.70;;;1.98;;
29358;SDS011;16347;53.232;6.556;2022-08-05T14:12:46;10.30;;;1.15;;
29358;SDS011;16347;53.232;6.556;2022-08-05T14:15:22;11.48;;;1.73;;
29358;SDS011;16347;53.232;6.556;2022-08-05T14:18:12;9.40;;;1.25;;
29358;SDS011;16347;53.232;6.556;2022-08-05T14:20:49;10.95;;;1.42;;
29358;SDS011;16347;53.232;6.556;2022-08-05T14:23:20;5.22;;;1.10;;
29358;SDS011;16347;53.232;6.556;2022-08-05T14:25:54;5.00;;;1.00;;
29358;SDS011;16347;53.232;6.556;2022-08-05T14:28:26;6.63;;;1.83;;
29358;SDS011;16347;53.232;6.556;2022-08-05T14:30:57;4.28;;;1.10;;
29358;SDS011;16347;53.232;6.556;2022-08-05T14:33:26;4.10;;;0.73;;
29358;SDS011;16347;53.232;6.556;2022-08-05T14:36:16;7.22;;;1.35;;
29358;SDS011;16347;53.232;6.556;2022-08-05T14:38:48;4.65;;;1.13;;
29358;SDS011;16347;53.232;6.556;2022-08-05T14:41:20;5.70;;;0.82;;
29358;SDS011;16347;53.232;6.556;2022-08-05T14:43:49;4.10;;;0.70;;
29358;SDS011;16347;53.232;6.556;2022-08-05T14:46:33;4.90;;;0.82;;
29358;SDS011;16347;53.232;6.556;2022-08-05T14:49:02;3.70;;;0.47;;
29358;SDS011;16347;53.232;6.556;2022-08-05T14:51:34;1.60;;;0.50;;
29358;SDS011;16347;53.232;6.556;2022-08-05T14:54:09;4.50;;;0.47;;
29358;SDS011;16347;53.232;6.556;2022-08-05T14:56:56;1.08;;;0.40;;
29358;SDS011;16347;53.232;6.556;2022-08-05T14:59:36;5.38;;;0.82;;
29358;SDS011;16347;53.232;6.556;2022-08-05T15:02:07;3.45;;;0.73;;
29358;SDS011;16347;53.232;6.556;2022-08-05T15:04:50;2.72;;;0.85;;
29358;SDS011;16347;53.232;6.556;2022-08-05T15:07:23;1.38;;;0.52;;
29358;SDS011;16347;53.232;6.556;2022-08-05T15:10:13;2.60;;;0.52;;
29358;SDS011;16347;53.232;6.556;2022-08-05T15:12:54;11.43;;;0.80;;
29358;SDS011;16347;53.232;6.556;2022-08-05T15:15:34;3.25;;;0.73;;
29358;SDS011;16347;53.232;6.556;2022-08-05T15:18:23;2.00;;;0.60;;
29358;SDS011;16347;53.232;6.556;2022-08-05T15:20:54;1.70;;;0.70;;
29358;SDS011;16347;53.232;6.556;2022-08-05T15:23:34;1.98;;;0.50;;
29358;SDS011;16347;53.232;6.556;2022-08-05T15:26:04;4.30;;;0.77;;
29358;SDS011;16347;53.232;6.556;2022-08-05T15:28:36;3.28;;;0.80;;
29358;SDS011;16347;53.232;6.556;2022-08-05T15:31:09;1.23;;;0.30;;
29358;SDS011;16347;53.232;6.556;2022-08-05T15:33:43;2.60;;;0.75;;
29358;SDS011;16347;53.232;6.556;2022-08-05T15:36:32;1.75;;;0.40;;
29358;SDS011;16347;53.232;6.556;2022-08-05T15:39:02;3.00;;;1.15;;
29358;SDS011;16347;53.232;6.556;2022-08-05T15:41:54;4.57;;;0.90;;
29358;SDS011;16347;53.232;6.556;2022-08-05T15:44:48;4.25;;;0.52;;
29358;SDS011;16347;53.232;6.556;2022-08-05T15:47:22;4.18;;;0.50;;
29358;SDS011;16347;53.232;6.556;2022-08-05T15:49:54;4.05;;;0.65;;
29358;SDS011;16347;53.232;6.556;2022-08-05T15:52:25;2.35;;;0.45;;
29358;SDS011;16347;53.232;6.556;2022-08-05T15:55:17;7.03;;;0.93;;
29358;SDS011;16347;53.232;6.556;2022-08-05T15:58:07;10.88;;;0.95;;
29358;SDS011;16347;53.232;6.556;2022-08-05T16:00:42;4.65;;;0.73;;
29358;SDS011;16347;53.232;6.556;2022-08-05T16:03:33;4.80;;;0.55;;
29358;SDS011;16347;53.232;6.556;2022-08-05T16:06:09;4.30;;;0.70;;
29358;SDS011;16347;53.232;6.556;2022-08-05T16:08:43;2.72;;;0.65;;
29358;SDS011;16347;53.232;6.556;2022-08-05T16:11:20;6.53;;;0.75;;
29358;SDS011;16347;53.232;6.556;2022-08-05T16:14:09;6.10;;;1.05;;
29358;SDS011;16347;53.232;6.556;2022-08-05T16:16:44;4.63;;;0.45;;